Time;durP1;ratioP1;P1;durP2;ratioP2;P2;SDS_P1;SDS_P2;PMS_P1;PMS_P2;Temp;Humidity;BMP_temperature;BMP_pressure;BME280_temperature;BME280_humidity;BME280_pressure;Samples;Min_cycle;Max_cycle;Signal;HPM_P1;HPM_P2
2023/12/02 00:01:59;;;;;;;37.83;23.60;;;0.60;99.90;;;;;;5100114;28;20234;-41
2023/12/02 00:04:25;;;;;;;30.67;20.87;;;0.60;99.90;;;;;;5099660;28;20267;-41
2023/12/02 00:06:50;;;;;;;30.80;21.30;;;0.60;99.90;;;;;;5098726;28;20258;-42
2023/12/02 00:09:16;;;;;;;34.00;22.83;;;0.50;99.90;;;;;;5099102;28;20766;-42
2023/12/02 00:11:42;;;;;;;32.83;21.73;;;0.50;99.90;;;;;;5063924;28;20180;-44
2023/12/02 00:14:07;;;;;;;33.47;21.90;;;0.50;99.90;;;;;;5078817;28;20184;-44
2023/12/02 00:16:33;;;;;;;32.67;22.50;;;0.50;99.90;;;;;;5079729;28;20437;-42
2023/12/02 00:18:59;;;;;;;35.20;22.40;;;0.60;99.90;;;;;;5097300;28;20225;-43
2023/12/02 00:21:24;;;;;;;29.90;20.17;;;0.60;99.90;;;;;;5096862;28;20233;-43
2023/12/02 00:23:50;;;;;;;33.07;22.33;;;0.60;99.90;;;;;;5097092;28;20297;-41
2023/12/02 00:26:15;;;;;;;33.63;21.37;;;0.60;99.90;;;;;;5097999;28;20188;-41
2023/12/02 00:28:41;;;;;;;34.90;22.90;;;0.60;99.90;;;;;;5097971;28;20180;-41
2023/12/02 00:31:07;;;;;;;34.00;22.80;;;0.60;99.90;;;;;;5098421;28;20531;-41
2023/12/02 00:33:32;;;;;;;32.97;22.87;;;0.60;99.90;;;;;;5079900;28;20188;-40
2023/12/02 00:35:58;;;;;;;30.33;22.77;;;0.60;99.90;;;;;;5079205;28;20406;-44
2023/12/02 00:38:24;;;;;;;33.73;21.40;;;0.60;99.90;;;;;;5098311;28;20192;-41
2023/12/02 00:40:49;;;;;;;33.80;21.60;;;0.60;99.90;;;;;;5080563;28;20177;-42
2023/12/02 00:43:15;;;;;;;28.93;20.87;;;0.60;99.90;;;;;;5098146;28;20276;-44
2023/12/02 00:45:41;;;;;;;33.20;22.27;;;0.60;99.90;;;;;;5098716;28;20183;-40
2023/12/02 00:48:06;;;;;;;30.70;21.70;;;0.50;99.90;;;;;;5098146;28;20180;-41
2023/12/02 00:50:32;;;;;;;33.83;23.53;;;0.50;99.90;;;;;;5098614;28;20329;-41
2023/12/02 00:52:57;;;;;;;34.07;22.90;;;0.50;99.90;;;;;;5098678;28;20177;-40
2023/12/02 00:55:23;;;;;;;33.20;22.63;;;0.50;99.90;;;;;;5098744;28;20451;-40
2023/12/02 00:57:49;;;;;;;28.73;21.20;;;0.50;99.90;;;;;;5098802;28;20298;-42
2023/12/02 01:00:15;;;;;;;33.03;23.70;;;0.50;99.90;;;;;;5080667;28;20233;-41
2023/12/02 01:02:42;;;;;;;29.70;21.70;;;0.50;99.90;;;;;;5098748;28;20233;-41
2023/12/02 01:05:08;;;;;;;29.97;20.50;;;0.50;99.90;;;;;;5098754;28;20434;-41
2023/12/02 01:07:33;;;;;;;32.57;21.10;;;0.50;99.90;;;;;;5098762;28;20418;-41
2023/12/02 01:09:59;;;;;;;35.50;22.87;;;0.50;99.90;;;;;;5063958;28;20477;-41
2023/12/02 01:12:25;;;;;;;31.17;21.97;;;0.50;99.90;;;;;;5098387;28;20525;-41
2023/12/02 01:14:50;;;;;;;30.03;21.87;;;0.50;99.90;;;;;;5098289;28;20228;-41
2023/12/02 01:17:16;;;;;;;29.10;21.40;;;0.50;99.90;;;;;;5080851;28;20192;-42
2023/12/02 01:19:43;;;;;;;32.10;21.40;;;0.50;99.90;;;;;;5098361;28;20283;-40
2023/12/02 01:22:08;;;;;;;28.03;20.17;;;0.50;99.90;;;;;;5098143;28;20184;-40
2023/12/02 01:24:34;;;;;;;29.67;20.23;;;0.50;99.90;;;;;;5098232;28;20423;-43
2023/12/02 01:26:59;;;;;;;26.50;18.87;;;0.50;99.90;;;;;;5097195;28;20160;-42
2023/12/02 01:29:25;;;;;;;28.20;19.67;;;0.50;99.90;;;;;;5097911;28;20497;-41
2023/12/02 01:31:51;;;;;;;26.13;18.50;;;0.40;99.90;;;;;;5098284;28;20228;-40
2023/12/02 01:34:17;;;;;;;25.07;18.53;;;0.40;99.90;;;;;;5097900;28;20227;-41
2023/12/02 01:36:43;;;;;;;23.70;16.80;;;0.30;99.90;;;;;;5097950;28;20184;-41
2023/12/02 01:39:10;;;;;;;23.53;18.70;;;0.30;99.90;;;;;;5097434;28;20410;-41
2023/12/02 01:41:36;;;;;;;23.37;17.43;;;0.30;99.90;;;;;;5078769;28;20434;-41
2023/12/02 01:44:02;;;;;;;28.53;18.47;;;0.30;99.90;;;;;;5096867;28;20681;-40
2023/12/02 01:46:27;;;;;;;24.37;17.70;;;0.30;99.90;;;;;;5096300;28;20491;-42
2023/12/02 01:48:54;;;;;;;26.50;18.67;;;0.40;99.90;;;;;;5097071;28;20181;-43
2023/12/02 01:51:19;;;;;;;26.17;18.30;;;0.30;99.90;;;;;;5097591;28;20676;-41
2023/12/02 01:53:45;;;;;;;21.17;16.00;;;0.30;99.90;;;;;;5097001;28;20430;-41
2023/12/02 01:56:11;;;;;;;27.73;17.90;;;0.30;99.90;;;;;;5097395;28;20484;-41
2023/12/02 01:58:37;;;;;;;25.20;18.27;;;0.30;99.90;;;;;;5078793;28;20539;-39
2023/12/02 02:01:04;;;;;;;26.37;18.93;;;0.30;99.90;;;;;;5079413;28;20426;-39
2023/12/02 02:03:29;;;;;;;26.50;18.37;;;0.30;99.90;;;;;;5096971;28;20560;-40
2023/12/02 02:05:55;;;;;;;26.20;18.33;;;0.20;99.90;;;;;;5096462;28;20464;-40
2023/12/02 02:08:20;;;;;;;26.40;18.87;;;0.20;99.90;;;;;;5078672;28;20452;-40
2023/12/02 02:10:46;;;;;;;24.80;19.20;;;0.20;99.90;;;;;;5097172;28;20208;-41
2023/12/02 02:13:11;;;;;;;26.33;19.00;;;0.20;99.90;;;;;;5096709;28;20503;-42
2023/12/02 02:15:37;;;;;;;27.10;19.00;;;0.20;99.90;;;;;;5096495;28;20160;-40
2023/12/02 02:18:03;;;;;;;27.53;19.90;;;0.20;99.90;;;;;;5077065;28;20297;-40
2023/12/02 02:20:28;;;;;;;26.50;19.10;;;0.20;99.90;;;;;;5077979;28;20322;-41
2023/12/02 02:22:54;;;;;;;28.10;20.33;;;0.20;99.90;;;;;;5096488;28;20184;-39
2023/12/02 02:25:19;;;;;;;30.00;21.10;;;0.10;99.90;;;;;;5096561;28;20605;-40
2023/12/02 02:27:45;;;;;;;27.80;18.80;;;0.10;99.90;;;;;;5096835;28;21155;-40
2023/12/02 02:30:11;;;;;;;31.60;20.00;;;0.10;99.90;;;;;;5079039;28;20203;-41
2023/12/02 02:32:36;;;;;;;28.33;19.73;;;0.10;99.90;;;;;;5096733;28;20482;-40
2023/12/02 02:35:03;;;;;;;29.67;19.63;;;0.10;99.90;;;;;;5096770;28;20188;-40
2023/12/02 02:37:28;;;;;;;28.03;18.90;;;0.10;99.90;;;;;;5078155;28;20407;-41
2023/12/02 02:39:54;;;;;;;29.17;19.93;;;0.00;99.90;;;;;;5095774;28;20487;-40
2023/12/02 02:42:19;;;;;;;29.80;20.00;;;0.00;99.90;;;;;;5096740;28;20199;-40
2023/12/02 02:44:45;;;;;;;27.90;19.43;;;0.10;99.90;;;;;;5097021;28;20176;-41
2023/12/02 02:47:11;;;;;;;26.20;19.10;;;0.00;99.90;;;;;;5096559;28;20586;-40
2023/12/02 02:49:37;;;;;;;24.87;18.00;;;0.00;99.90;;;;;;5096921;28;20242;-40
2023/12/02 02:52:03;;;;;;;24.77;18.03;;;0.00;99.90;;;;;;5099692;28;20449;-43
2023/12/02 02:54:28;;;;;;;25.20;17.03;;;0.00;99.90;;;;;;5100306;28;20168;-42
2023/12/02 02:56:54;;;;;;;25.50;19.30;;;0.00;99.90;;;;;;5100452;28;20467;-39
2023/12/02 02:59:19;;;;;;;24.90;16.77;;;-0.10;99.90;;;;;;5100150;28;20282;-41
2023/12/02 03:01:47;;;;;;;24.23;17.17;;;-0.10;99.90;;;;;;5099832;28;20334;-41
2023/12/02 03:04:13;;;;;;;23.37;16.33;;;-0.10;99.90;;;;;;5099578;28;20554;-40
2023/12/02 03:06:39;;;;;;;25.27;17.00;;;-0.10;99.90;;;;;;5100482;28;20414;-41
2023/12/02 03:09:11;;;;;;;22.47;16.60;;;-0.10;99.90;;;;;;5099367;28;20431;-41
2023/12/02 03:11:36;;;;;;;23.90;15.80;;;-0.20;99.90;;;;;;5099079;28;20177;-40
2023/12/02 03:14:02;;;;;;;22.33;16.47;;;-0.20;99.90;;;;;;5099343;28;20944;-42
2023/12/02 03:16:28;;;;;;;23.03;17.10;;;-0.20;99.90;;;;;;5099343;28;20211;-41
2023/12/02 03:18:53;;;;;;;20.90;15.00;;;-0.20;99.90;;;;;;5099867;28;20258;-41
2023/12/02 03:21:31;;;;;;;20.83;14.83;;;-0.20;99.90;;;;;;5099984;28;20179;-40
2023/12/02 03:23:56;;;;;;;22.40;16.30;;;-0.20;99.90;;;;;;5082433;28;20176;-39
2023/12/02 03:26:24;;;;;;;20.37;13.93;;;-0.20;99.90;;;;;;5100295;28;20846;-40
2023/12/02 03:28:49;;;;;;;20.60;14.50;;;-0.20;99.90;;;;;;5100389;28;20173;-39
2023/12/02 03:31:15;;;;;;;23.07;15.47;;;-0.20;99.90;;;;;;5098852;28;20530;-38
2023/12/02 03:33:41;;;;;;;23.40;15.77;;;-0.20;99.90;;;;;;5099903;28;20636;-39
2023/12/02 03:36:07;;;;;;;22.67;15.93;;;-0.20;99.90;;;;;;5082168;28;20237;-40
2023/12/02 03:38:33;;;;;;;21.23;15.90;;;-0.20;99.90;;;;;;5100388;28;20474;-39
2023/12/02 03:40:59;;;;;;;22.27;15.77;;;-0.20;99.90;;;;;;5099406;28;20480;-39
2023/12/02 03:43:25;;;;;;;20.13;14.97;;;-0.20;99.90;;;;;;5100390;28;20278;-39
2023/12/02 03:45:50;;;;;;;18.80;14.17;;;-0.20;99.90;;;;;;5100943;28;20480;-40
2023/12/02 03:48:16;;;;;;;19.30;14.50;;;-0.30;99.90;;;;;;5099801;28;20180;-40
2023/12/02 03:50:41;;;;;;;16.73;12.70;;;-0.30;99.90;;;;;;5099719;28;20215;-39
2023/12/02 03:53:07;;;;;;;19.53;14.00;;;-0.30;99.90;;;;;;5099245;28;20180;-40
2023/12/02 03:55:32;;;;;;;22.97;15.40;;;-0.40;99.90;;;;;;5063971;28;20176;-40
2023/12/02 03:57:59;;;;;;;20.47;14.43;;;-0.30;99.90;;;;;;5100069;28;20177;-40
2023/12/02 04:00:24;;;;;;;19.33;14.27;;;-0.30;99.90;;;;;;5099758;28;20195;-40
2023/12/02 04:02:50;;;;;;;18.73;13.40;;;-0.30;99.90;;;;;;5099928;28;20473;-39
2023/12/02 04:05:15;;;;;;;18.47;13.50;;;-0.30;99.90;;;;;;5100035;28;20227;-40
2023/12/02 04:07:42;;;;;;;16.40;12.50;;;-0.30;99.90;;;;;;5099766;28;20191;-39
2023/12/02 04:10:08;;;;;;;17.20;12.10;;;-0.30;99.90;;;;;;5082116;28;20211;-40
2023/12/02 04:12:34;;;;;;;18.10;12.70;;;-0.30;99.90;;;;;;5082176;28;20461;-39
2023/12/02 04:15:00;;;;;;;15.70;11.20;;;-0.30;99.90;;;;;;5080886;28;20740;-39
2023/12/02 04:17:25;;;;;;;17.43;12.50;;;-0.30;99.90;;;;;;5081479;28;20434;-39
2023/12/02 04:19:52;;;;;;;14.40;11.00;;;-0.40;99.90;;;;;;5099113;28;20916;-39
2023/12/02 04:22:19;;;;;;;14.60;10.50;;;-0.30;99.90;;;;;;5099795;28;20426;-40
2023/12/02 04:24:48;;;;;;;13.73;10.83;;;-0.30;99.90;;;;;;5082486;28;20192;-39
2023/12/02 04:27:14;;;;;;;12.73;10.00;;;-0.40;99.90;;;;;;5100567;28;20511;-40
2023/12/02 04:29:42;;;;;;;13.97;10.07;;;-0.40;99.90;;;;;;5081936;28;20885;-39
2023/12/02 04:32:08;;;;;;;13.90;10.23;;;-0.40;99.90;;;;;;5082742;28;20220;-39
2023/12/02 04:34:34;;;;;;;14.07;10.47;;;-0.50;99.90;;;;;;5080956;28;20866;-39
2023/12/02 04:37:01;;;;;;;14.47;10.03;;;-0.40;99.90;;;;;;5098453;28;20407;-41
2023/12/02 04:39:27;;;;;;;12.03;9.70;;;-0.40;99.90;;;;;;5080511;28;20439;-40
2023/12/02 04:41:53;;;;;;;10.73;9.53;;;-0.50;99.90;;;;;;5098158;28;20434;-40
2023/12/02 04:44:18;;;;;;;12.40;9.80;;;-0.50;99.90;;;;;;5097409;28;20750;-39
2023/12/02 04:46:44;;;;;;;12.57;9.43;;;-0.50;99.90;;;;;;5096665;28;20184;-39
2023/12/02 04:49:12;;;;;;;12.70;9.47;;;-0.50;99.90;;;;;;5077951;28;20199;-39
2023/12/02 04:51:38;;;;;;;13.17;9.90;;;-0.60;99.90;;;;;;5097274;28;20234;-40
2023/12/02 04:54:03;;;;;;;14.07;11.10;;;-0.60;99.90;;;;;;5097050;28;20454;-45
2023/12/02 04:56:29;;;;;;;15.30;10.67;;;-0.60;99.90;;;;;;5097624;28;20185;-40
2023/12/02 04:58:56;;;;;;;12.67;10.30;;;-0.60;99.90;;;;;;5098185;28;20211;-39
2023/12/02 05:01:21;;;;;;;14.83;11.23;;;-0.60;99.90;;;;;;5098209;28;20203;-40
2023/12/02 05:03:47;;;;;;;16.97;11.43;;;-0.60;99.90;;;;;;5098678;28;20438;-39
2023/12/02 05:06:14;;;;;;;12.13;9.40;;;-0.60;99.90;;;;;;5098834;28;20189;-40
2023/12/02 05:08:40;;;;;;;14.80;11.17;;;-0.60;99.90;;;;;;5098037;28;20190;-41
2023/12/02 05:11:06;;;;;;;13.33;10.97;;;-0.60;99.90;;;;;;5099191;28;20474;-39
2023/12/02 05:13:31;;;;;;;13.77;10.70;;;-0.60;99.90;;;;;;5096834;28;20192;-39
2023/12/02 05:15:57;;;;;;;16.10;11.47;;;-0.60;99.90;;;;;;5097980;28;20411;-39
2023/12/02 05:18:22;;;;;;;13.50;10.20;;;-0.60;99.90;;;;;;5098334;28;20181;-39
2023/12/02 05:20:49;;;;;;;13.77;10.90;;;-0.60;99.90;;;;;;5098308;28;20195;-42
2023/12/02 05:23:14;;;;;;;14.50;11.27;;;-0.50;99.90;;;;;;5097384;28;20185;-38
2023/12/02 05:25:40;;;;;;;14.27;10.87;;;-0.60;99.90;;;;;;5097768;28;20476;-40
2023/12/02 05:28:06;;;;;;;12.60;10.13;;;-0.60;99.90;;;;;;5096126;28;20183;-48
2023/12/02 05:30:33;;;;;;;16.50;11.07;;;-0.70;99.90;;;;;;5096613;28;20281;-40
2023/12/02 05:32:59;;;;;;;12.77;10.17;;;-0.70;99.90;;;;;;5096881;28;20270;-40
2023/12/02 05:35:24;;;;;;;14.60;11.13;;;-0.60;99.90;;;;;;5079278;28;20707;-39
2023/12/02 05:37:50;;;;;;;13.57;10.50;;;-0.70;99.90;;;;;;5096223;28;20188;-39
2023/12/02 05:40:17;;;;;;;13.90;10.03;;;-0.70;99.90;;;;;;5095094;28;20514;-39
2023/12/02 05:42:42;;;;;;;11.87;9.27;;;-0.70;99.90;;;;;;5078919;28;20787;-40
2023/12/02 05:45:09;;;;;;;10.93;9.07;;;-0.70;99.90;;;;;;5079821;28;20434;-40
2023/12/02 05:47:34;;;;;;;11.40;8.50;;;-0.70;99.90;;;;;;5097129;28;20183;-39
2023/12/02 05:50:00;;;;;;;10.87;9.20;;;-0.70;99.90;;;;;;5097014;28;20891;-39
2023/12/02 05:52:25;;;;;;;13.90;9.57;;;-0.70;99.90;;;;;;5096146;28;20427;-39
2023/12/02 05:54:51;;;;;;;12.13;9.60;;;-0.70;99.90;;;;;;5096648;28;20169;-39
2023/12/02 05:57:17;;;;;;;10.27;8.60;;;-0.70;99.90;;;;;;5078634;28;20490;-39
2023/12/02 05:59:42;;;;;;;12.43;10.33;;;-0.70;99.90;;;;;;5097409;28;20289;-40
2023/12/02 06:02:08;;;;;;;12.40;11.00;;;-0.70;99.90;;;;;;5097441;28;20180;-40
2023/12/02 06:04:33;;;;;;;13.40;10.47;;;-0.70;99.90;;;;;;5096981;28;20567;-39
2023/12/02 06:06:59;;;;;;;12.53;9.73;;;-0.70;99.90;;;;;;5095838;28;20196;-40
2023/12/02 06:09:25;;;;;;;13.23;10.40;;;-0.70;99.90;;;;;;5095660;28;20282;-39
2023/12/02 06:11:50;;;;;;;12.73;10.50;;;-0.70;99.90;;;;;;5095496;28;20701;-41
2023/12/02 06:14:16;;;;;;;11.37;9.57;;;-0.80;99.90;;;;;;5095167;28;20196;-39
2023/12/02 06:16:41;;;;;;;13.83;10.80;;;-0.80;99.90;;;;;;5094546;28;20176;-39
2023/12/02 06:19:08;;;;;;;12.93;10.60;;;-0.80;99.90;;;;;;5094743;28;20172;-40
2023/12/02 06:21:34;;;;;;;15.03;11.40;;;-0.80;99.90;;;;;;5095202;28;20203;-41
2023/12/02 06:24:00;;;;;;;15.87;11.40;;;-0.80;99.90;;;;;;5096920;28;20513;-40
2023/12/02 06:26:25;;;;;;;14.50;11.30;;;-0.80;99.90;;;;;;5096823;28;20513;-39
2023/12/02 06:28:51;;;;;;;20.90;15.27;;;-0.80;99.90;;;;;;5094533;28;20336;-39
2023/12/02 06:31:17;;;;;;;17.40;13.80;;;-0.80;99.90;;;;;;5095031;28;20216;-40
2023/12/02 06:33:43;;;;;;;16.00;12.37;;;-0.80;99.90;;;;;;5093960;28;20180;-38
2023/12/02 06:36:09;;;;;;;19.10;14.07;;;-0.80;99.90;;;;;;5094753;28;20173;-40
2023/12/02 06:38:38;;;;;;;19.00;14.13;;;-0.80;99.90;;;;;;5094497;28;20431;-44
2023/12/02 06:41:03;;;;;;;17.00;13.87;;;-0.80;99.90;;;;;;5094427;28;20557;-39
2023/12/02 06:43:29;;;;;;;17.10;12.67;;;-0.80;99.90;;;;;;5093445;28;20511;-39
2023/12/02 06:45:55;;;;;;;18.20;16.30;;;-0.80;99.90;;;;;;5093583;28;20183;-38
2023/12/02 06:48:20;;;;;;;17.50;13.40;;;-0.80;99.90;;;;;;5094474;28;20194;-39
2023/12/02 06:50:46;;;;;;;19.93;13.80;;;-0.80;99.90;;;;;;5094934;28;20212;-40
2023/12/02 06:53:15;;;;;;;18.73;14.43;;;-0.90;99.90;;;;;;5093985;28;20250;-40
2023/12/02 06:55:41;;;;;;;18.47;13.30;;;-0.90;99.90;;;;;;5095008;28;20175;-40
2023/12/02 06:58:07;;;;;;;17.73;13.00;;;-0.90;99.90;;;;;;5094977;28;20442;-41
2023/12/02 07:00:33;;;;;;;14.37;12.00;;;-0.90;99.90;;;;;;5092661;28;20469;-39
2023/12/02 07:02:59;;;;;;;19.03;14.03;;;-0.90;99.90;;;;;;5092588;28;20187;-40
2023/12/02 07:05:25;;;;;;;20.97;14.57;;;-1.00;99.90;;;;;;5091877;28;20192;-39
2023/12/02 07:07:50;;;;;;;20.60;14.90;;;-1.00;99.90;;;;;;5092316;28;20422;-38
2023/12/02 07:10:16;;;;;;;20.47;16.27;;;-1.00;99.90;;;;;;5090887;28;20565;-40
2023/12/02 07:12:42;;;;;;;23.10;17.17;;;-1.00;99.90;;;;;;5093036;28;20187;-39
2023/12/02 07:15:08;;;;;;;18.73;15.23;;;-1.00;99.90;;;;;;5093712;28;20362;-41
2023/12/02 07:17:33;;;;;;;24.73;17.20;;;-1.00;99.90;;;;;;5093934;28;20395;-42
2023/12/02 07:20:01;;;;;;;19.20;13.67;;;-1.00;99.90;;;;;;5093287;28;20854;-40
2023/12/02 07:22:26;;;;;;;21.80;15.13;;;-1.00;99.90;;;;;;5094336;28;20179;-39
2023/12/02 07:24:52;;;;;;;20.27;15.03;;;-1.10;81.90;;;;;;5094431;28;20414;-37
2023/12/02 07:27:18;;;;;;;21.53;14.63;;;-1.10;30.00;;;;;;5094722;28;20195;-39
2023/12/02 07:29:44;;;;;;;19.50;13.70;;;-1.10;23.40;;;;;;5095122;28;20546;-39
2023/12/02 07:32:09;;;;;;;21.17;13.97;;;-1.00;26.50;;;;;;5093618;28;20307;-39
2023/12/02 07:34:35;;;;;;;20.50;14.03;;;-1.00;46.40;;;;;;5092721;28;20233;-39
2023/12/02 07:37:02;;;;;;;20.60;14.70;;;-1.00;62.70;;;;;;5094489;28;20202;-38
2023/12/02 07:39:27;;;;;;;19.03;14.87;;;-1.00;88.00;;;;;;5098422;28;20195;-41
2023/12/02 07:41:53;;;;;;;21.27;14.57;;;-1.00;93.10;;;;;;5099253;28;20894;-39
2023/12/02 07:44:19;;;;;;;19.37;15.40;;;-1.00;99.20;;;;;;5098603;28;20248;-38
2023/12/02 07:46:44;;;;;;;19.33;14.37;;;-0.90;99.90;;;;;;5098241;28;20284;-38
2023/12/02 07:49:10;;;;;;;20.17;14.23;;;-0.90;99.90;;;;;;5079638;28;20184;-39
2023/12/02 07:51:36;;;;;;;22.57;16.13;;;-0.90;99.90;;;;;;5063148;28;20283;-40
2023/12/02 07:54:01;;;;;;;15.30;11.70;;;-0.90;99.90;;;;;;5098851;28;20188;-40
2023/12/02 07:56:27;;;;;;;11.50;8.80;;;-0.80;97.20;;;;;;5098305;28;20203;-38
2023/12/02 07:58:54;;;;;;;11.73;8.60;;;-0.80;1.00;;;;;;5097099;28;20176;-38
2023/12/02 08:01:23;;;;;;;12.00;9.83;;;-0.90;1.00;;;;;;5095860;28;20176;-38
2023/12/02 08:03:48;;;;;;;11.03;9.33;;;-0.90;1.00;;;;;;5078176;28;20427;-41
2023/12/02 08:06:14;;;;;;;12.27;9.80;;;-0.90;1.00;;;;;;5096119;28;21055;-39
2023/12/02 08:08:39;;;;;;;12.87;9.60;;;-1.00;1.00;;;;;;5097133;28;20184;-38
2023/12/02 08:11:05;;;;;;;13.10;10.57;;;-1.00;1.00;;;;;;5097530;28;20515;-39
2023/12/02 08:13:31;;;;;;;14.30;10.70;;;-1.00;1.00;;;;;;5098532;28;20176;-39
2023/12/02 08:15:57;;;;;;;15.03;11.90;;;-1.00;1.00;;;;;;5099477;28;20820;-40
2023/12/02 08:18:22;;;;;;;17.30;14.97;;;-1.10;4.70;;;;;;5097959;28;20184;-39
2023/12/02 08:20:48;;;;;;;14.20;11.50;;;-1.10;1.00;;;;;;5098717;28;20249;-41
2023/12/02 08:23:14;;;;;;;16.00;13.70;;;-1.20;1.00;;;;;;5096776;28;20408;-39
2023/12/02 08:25:39;;;;;;;17.27;13.40;;;-1.20;1.00;;;;;;5097966;28;20176;-42
2023/12/02 08:28:05;;;;;;;16.37;13.10;;;-1.20;5.40;;;;;;5097963;28;20519;-40
2023/12/02 08:30:30;;;;;;;16.67;12.60;;;-1.30;26.60;;;;;;5078313;28;20231;-40
2023/12/02 08:32:56;;;;;;;18.47;13.43;;;-1.30;32.90;;;;;;5098634;28;20243;-38
2023/12/02 08:35:22;;;;;;;17.43;13.17;;;-1.30;79.70;;;;;;5097033;28;20318;-39
2023/12/02 08:37:47;;;;;;;19.13;13.70;;;-1.30;91.80;;;;;;5098279;28;20554;-40
2023/12/02 08:40:13;;;;;;;19.73;15.10;;;-1.30;95.20;;;;;;5097950;28;20181;-40
2023/12/02 08:42:39;;;;;;;17.50;13.53;;;-1.30;99.90;;;;;;5098057;28;20500;-40
2023/12/02 08:45:05;;;;;;;19.57;14.13;;;-1.30;99.90;;;;;;5079724;28;20177;-39
2023/12/02 08:47:31;;;;;;;20.10;15.33;;;-1.30;99.90;;;;;;5097490;28;20176;-40
2023/12/02 08:49:57;;;;;;;18.30;13.70;;;-1.30;99.90;;;;;;5095242;28;20466;-41
2023/12/02 08:52:22;;;;;;;19.60;14.60;;;-1.20;99.90;;;;;;5095416;28;20264;-39
2023/12/02 08:54:48;;;;;;;16.37;13.97;;;-1.20;99.90;;;;;;5097767;28;20200;-41
2023/12/02 08:57:13;;;;;;;19.27;15.27;;;-1.20;99.90;;;;;;5097704;28;20188;-39
2023/12/02 08:59:39;;;;;;;18.40;14.47;;;-1.10;99.90;;;;;;5095455;28;20577;-40
2023/12/02 09:02:05;;;;;;;17.77;14.20;;;-1.10;99.90;;;;;;5095789;28;20192;-39
2023/12/02 09:04:32;;;;;;;17.37;13.20;;;-1.10;99.90;;;;;;5095821;28;20161;-40
2023/12/02 09:06:58;;;;;;;16.70;12.90;;;-1.10;1.00;;;;;;5094685;28;20406;-40
2023/12/02 09:09:24;;;;;;;15.90;12.60;;;-1.10;1.00;;;;;;5094400;28;20484;-40
2023/12/02 09:11:49;;;;;;;17.57;13.40;;;-1.10;1.00;;;;;;5093553;28;20528;-39
2023/12/02 09:14:16;;;;;;;15.03;12.10;;;-1.10;1.00;;;;;;5092787;28;20329;-39
2023/12/02 09:16:46;;;;;;;16.60;13.10;;;-1.20;1.00;;;;;;5092696;28;20835;-39
2023/12/02 09:19:45;;;;;;;17.97;13.40;;;-1.20;1.00;;;;;;5092898;28;20165;-39
2023/12/02 09:22:59;;;;;;;17.30;13.90;;;-1.10;1.00;;;;;;5069957;28;20521;-39
2023/12/02 09:25:29;;;;;;;17.10;14.20;;;-1.10;1.00;;;;;;5072668;28;20427;-41
2023/12/02 09:28:07;;;;;;;17.53;12.80;;;-1.10;1.00;;;;;;5096327;28;20407;-39
2023/12/02 09:30:33;;;;;;;21.57;15.03;;;-1.00;1.00;;;;;;5096357;28;20465;-40
2023/12/02 09:32:59;;;;;;;20.07;14.00;;;-1.00;1.00;;;;;;5095126;28;20768;-40
2023/12/02 09:35:25;;;;;;;20.47;15.43;;;-1.00;1.00;;;;;;5095758;28;20426;-39
2023/12/02 09:37:51;;;;;;;18.97;14.47;;;-1.00;1.00;;;;;;5094635;28;20430;-39
2023/12/02 09:40:19;;;;;;;23.77;16.00;;;-0.90;1.00;;;;;;5094542;28;20411;-40
2023/12/02 09:42:52;;;;;;;21.30;16.73;;;-0.90;1.00;;;;;;5094767;28;20172;-41
2023/12/02 09:45:21;;;;;;;22.80;19.40;;;-0.90;1.00;;;;;;5096501;28;20479;-39
2023/12/02 09:48:05;;;;;;;19.23;15.00;;;-0.80;1.00;;;;;;5077843;28;20434;-40
2023/12/02 09:51:00;;;;;;;24.40;16.87;;;-0.80;1.00;;;;;;5096498;28;20534;-41
2023/12/02 09:53:35;;;;;;;20.97;15.57;;;-0.80;1.00;;;;;;5084522;28;20430;-40
2023/12/02 09:56:08;;;;;;;18.70;15.37;;;-0.90;1.00;;;;;;5095543;28;20513;-42
2023/12/02 09:58:42;;;;;;;17.80;14.80;;;-0.80;1.00;;;;;;5095104;28;20402;-40
2023/12/02 10:01:07;;;;;;;15.27;13.40;;;-0.80;1.00;;;;;;5077119;28;20498;-39
2023/12/02 10:03:48;;;;;;;21.13;15.50;;;-0.80;99.90;;;;;;5075483;28;20459;-39
2023/12/02 10:06:20;;;;;;;26.30;20.00;;;-0.80;99.90;;;;;;5093844;28;20637;-38
2023/12/02 10:08:59;;;;;;;23.77;18.70;;;-0.90;99.90;;;;;;5093558;28;20701;-40
2023/12/02 10:11:38;;;;;;;18.57;14.70;;;-0.90;1.00;;;;;;5094612;28;20504;-40
2023/12/02 10:14:12;;;;;;;20.97;15.17;;;-0.90;1.00;;;;;;5085299;28;20560;-38
2023/12/02 10:16:41;;;;;;;18.93;15.17;;;-0.90;99.90;;;;;;5094775;28;20463;-41
2023/12/02 10:19:12;;;;;;;18.10;14.07;;;-0.90;99.90;;;;;;5112695;28;20437;-40
2023/12/02 10:21:42;;;;;;;23.63;17.03;;;-0.90;99.90;;;;;;5113504;28;20443;-39
2023/12/02 10:24:11;;;;;;;16.57;12.50;;;-0.90;99.90;;;;;;5094588;28;20585;-40
2023/12/02 10:26:59;;;;;;;18.30;13.70;;;-0.90;99.90;;;;;;5112423;28;20703;-38
2023/12/02 10:30:09;;;;;;;17.40;13.70;;;-0.90;99.90;;;;;;5096046;28;20466;-40
2023/12/02 10:32:49;;;;;;;17.47;12.83;;;-0.90;99.90;;;;;;5094585;28;20567;-39
2023/12/02 10:35:21;;;;;;;16.37;12.93;;;-0.80;99.90;;;;;;5113676;28;20476;-40
2023/12/02 10:37:53;;;;;;;38.50;25.70;;;-0.90;99.90;;;;;;5112153;28;20856;-40
2023/12/02 10:40:21;;;;;;;22.13;19.20;;;-0.80;99.90;;;;;;5113723;28;20418;-39
2023/12/02 10:43:02;;;;;;;21.77;16.37;;;-0.70;99.90;;;;;;5095691;28;20426;-38
2023/12/02 10:45:29;;;;;;;18.10;14.60;;;-0.70;99.90;;;;;;5112742;28;20429;-40
2023/12/02 10:47:56;;;;;;;17.03;15.20;;;-0.70;45.00;;;;;;5114101;28;20417;-38
2023/12/02 10:50:22;;;;;;;18.70;15.20;;;-0.70;82.90;;;;;;5096783;28;20473;-39
2023/12/02 10:53:04;;;;;;;19.73;16.07;;;-0.70;99.90;;;;;;5112652;28;21042;-38
2023/12/02 10:55:40;;;;;;;18.50;12.77;;;-0.60;37.30;;;;;;5112258;28;20444;-41
2023/12/02 10:58:06;;;;;;;17.27;13.30;;;-0.70;1.00;;;;;;5094724;28;20441;-40
2023/12/02 11:00:36;;;;;;;19.33;13.33;;;-0.70;1.00;;;;;;5113182;28;20454;-39
2023/12/02 11:03:32;;;;;;;17.80;14.60;;;-0.80;1.00;;;;;;5095562;28;20436;-42
2023/12/02 11:06:07;;;;;;;15.67;12.37;;;-0.80;1.00;;;;;;5095425;28;20440;-39
2023/12/02 11:08:53;;;;;;;17.00;12.60;;;-0.90;1.00;;;;;;5115485;28;20795;-39
2023/12/02 11:11:49;;;;;;;17.37;12.90;;;-0.90;72.80;;;;;;5115781;28;20539;-40
2023/12/02 11:14:20;;;;;;;16.20;12.10;;;-0.90;21.50;;;;;;5119882;28;20425;-41
2023/12/02 11:17:01;;;;;;;19.83;14.50;;;-0.90;1.00;;;;;;5117242;28;20520;-39
2023/12/02 11:20:08;;;;;;;16.77;13.20;;;-1.00;13.90;;;;;;5097329;28;20779;-38
2023/12/02 11:22:49;;;;;;;17.23;13.23;;;-1.00;26.30;;;;;;5116808;28;20431;-41
2023/12/02 11:25:14;;;;;;;20.30;15.30;;;-1.00;29.00;;;;;;5116335;28;20409;-40
2023/12/02 11:27:53;;;;;;;19.60;13.73;;;-1.00;45.00;;;;;;5097022;28;20436;-39
2023/12/02 11:30:57;;;;;;;19.00;15.27;;;-1.00;46.40;;;;;;5114123;28;20314;-41
2023/12/02 11:33:47;;;;;;;22.37;12.20;;;-1.10;51.10;;;;;;5044869;28;20460;-41
2023/12/02 11:36:17;;;;;;;31.57;24.17;;;0.90;1.00;;;;;;5096799;28;20460;-41
2023/12/02 11:39:03;;;;;;;27.83;20.03;;;1.50;1.00;;;;;;5096992;28;20484;-41
2023/12/02 11:41:40;;;;;;;23.47;17.00;;;0.90;1.00;;;;;;5096184;28;20436;-39
2023/12/02 11:44:41;;;;;;;21.70;15.90;;;0.30;1.00;;;;;;5114887;28;20434;-40
2023/12/02 11:47:34;;;;;;;20.97;16.10;;;-0.20;99.90;;;;;;5098525;28;20416;-38
2023/12/02 11:50:06;;;;;;;19.80;16.60;;;-0.40;99.90;;;;;;5115319;28;20461;-41
2023/12/02 11:52:53;;;;;;;17.90;16.00;;;-0.60;99.90;;;;;;5116068;28;20425;-39
2023/12/02 11:55:22;;;;;;;17.37;15.57;;;-0.70;40.30;;;;;;5115990;28;20402;-42
2023/12/02 11:57:54;;;;;;;16.27;13.07;;;-0.80;1.00;;;;;;5116430;28;20417;-40
2023/12/02 12:01:00;;;;;;;12.80;10.73;;;-0.80;1.00;;;;;;5117091;28;20432;-41
2023/12/02 12:04:13;;;;;;;14.67;11.93;;;-0.90;99.90;;;;;;5116254;28;20514;-39
2023/12/02 12:07:01;;;;;;;14.80;12.57;;;-1.00;99.90;;;;;;5117634;28;20413;-41
2023/12/02 12:09:43;;;;;;;14.93;12.70;;;-1.00;99.90;;;;;;5098595;28;20421;-39
2023/12/02 12:12:11;;;;;;;15.20;12.77;;;-1.10;99.90;;;;;;5116478;28;20525;-39
2023/12/02 12:14:37;;;;;;;14.87;12.77;;;-1.10;99.90;;;;;;5118056;28;20441;-40
2023/12/02 12:17:03;;;;;;;16.20;14.23;;;-1.10;99.90;;;;;;5116618;28;20521;-38
2023/12/02 12:19:29;;;;;;;17.37;13.83;;;-1.10;99.90;;;;;;5117724;28;20460;-40
2023/12/02 12:21:56;;;;;;;15.57;12.33;;;-1.20;99.90;;;;;;5117787;28;20525;-45
2023/12/02 12:24:22;;;;;;;23.97;15.30;;;-1.10;1.00;;;;;;5117011;28;20199;-41
2023/12/02 12:26:48;;;;;;;26.97;18.07;;;0.70;1.00;;;;;;5117313;28;20458;-50
2023/12/02 12:29:15;;;;;;;28.20;21.20;;;2.20;1.00;;;;;;5117854;28;20769;-41
2023/12/02 12:31:42;;;;;;;20.00;16.57;;;2.50;1.00;;;;;;5117451;28;20576;-40
2023/12/02 12:34:12;;;;;;;15.13;12.70;;;1.50;1.00;;;;;;5116563;28;20433;-40
2023/12/02 12:36:39;;;;;;;15.20;13.60;;;0.70;1.00;;;;;;5115076;28;20478;-42
2023/12/02 12:39:05;;;;;;;16.90;13.60;;;0.20;99.90;;;;;;5115299;28;20414;-41
2023/12/02 12:41:31;;;;;;;15.23;12.60;;;-0.20;99.90;;;;;;5096447;28;20429;-41